createdAt,value
2018-04-16T00:00:08.503Z,986.38
2018-04-16T00:02:01.447Z,986.40
2018-04-16T00:03:01.330Z,986.38
2018-04-16T00:04:54.195Z,986.45
2018-04-16T00:05:54.100Z,986.39
2018-04-16T00:07:46.944Z,986.40
2018-04-16T00:08:46.829Z,986.35
2018-04-16T00:10:39.692Z,986.33
2018-04-16T00:11:39.478Z,986.28
2018-04-16T00:13:32.218Z,986.22
2018-04-16T00:14:32.135Z,986.24
2018-04-16T00:16:24.985Z,986.22
2018-04-16T00:17:24.867Z,986.20
2018-04-16T00:19:18.140Z,986.19
2018-04-16T00:20:18.055Z,986.17
2018-04-16T00:22:10.792Z,986.19
2018-04-16T00:23:10.678Z,986.19
2018-04-16T00:25:03.621Z,986.15
2018-04-16T00:26:03.539Z,986.11
2018-04-16T00:27:56.408Z,986.08
2018-04-16T00:28:56.289Z,986.06
2018-04-16T00:30:49.134Z,986.03
2018-04-16T00:31:49.030Z,986.03
2018-04-16T00:33:41.900Z,986.05
2018-04-16T00:34:41.691Z,986.05
2018-04-16T00:36:34.520Z,986.11
2018-04-16T00:37:34.428Z,986.11
2018-04-16T00:39:27.187Z,986.08
2018-04-16T00:40:27.090Z,986.08
2018-04-16T00:42:19.929Z,986.13
2018-04-16T00:43:19.815Z,986.17
2018-04-16T00:45:12.779Z,986.20
2018-04-16T00:46:12.669Z,986.21
2018-04-16T00:48:05.448Z,986.23
2018-04-16T00:49:05.341Z,986.23
2018-04-16T00:50:58.173Z,986.26
2018-04-16T00:51:58.111Z,986.25
2018-04-16T00:53:50.854Z,986.27
2018-04-16T00:54:50.735Z,986.31
2018-04-16T00:56:43.503Z,986.34
2018-04-16T00:57:43.367Z,986.35
2018-04-16T00:59:36.127Z,986.29
2018-04-16T01:00:36.027Z,986.30
2018-04-16T01:02:28.874Z,986.33
2018-04-16T01:03:28.759Z,986.38
2018-04-16T01:05:21.500Z,986.39
2018-04-16T01:06:21.422Z,986.35
2018-04-16T01:08:14.168Z,986.38
2018-04-16T01:09:14.081Z,986.38
2018-04-16T01:11:06.901Z,986.40
2018-04-16T01:12:06.807Z,986.39
2018-04-16T01:13:59.574Z,986.37
2018-04-16T01:14:59.446Z,986.42
2018-04-16T01:16:52.337Z,986.37
2018-04-16T01:17:52.207Z,986.35
2018-04-16T01:19:45.051Z,986.33
2018-04-16T01:20:44.942Z,986.32
2018-04-16T01:22:37.700Z,986.35
2018-04-16T01:23:37.611Z,986.34
2018-04-16T01:25:30.458Z,986.32
2018-04-16T01:26:30.345Z,986.33
2018-04-16T01:28:23.104Z,986.35
2018-04-16T01:29:23.014Z,986.33
2018-04-16T01:31:15.952Z,986.29
2018-04-16T01:32:15.885Z,986.31
2018-04-16T01:34:08.584Z,986.31
2018-04-16T01:35:08.500Z,986.31
2018-04-16T01:37:01.256Z,986.30
2018-04-16T01:38:01.155Z,986.28
2018-04-16T01:39:54.390Z,986.26
2018-04-16T01:40:54.322Z,986.22
2018-04-16T01:42:47.567Z,986.21
2018-04-16T01:43:47.458Z,986.22
2018-04-16T01:45:40.730Z,986.17
2018-04-16T01:46:40.617Z,986.19
2018-04-16T01:48:33.384Z,986.23
2018-04-16T01:49:33.270Z,986.23
2018-04-16T01:51:26.031Z,986.21
2018-04-16T01:52:25.921Z,986.20
2018-04-16T01:54:18.671Z,986.24
2018-04-16T01:55:18.623Z,986.23
2018-04-16T01:57:11.439Z,986.29
2018-04-16T01:58:11.211Z,986.20
2018-04-16T02:00:04.065Z,986.21
2018-04-16T02:01:03.951Z,986.20
2018-04-16T02:02:57.215Z,986.21
2018-04-16T02:03:57.152Z,986.22
2018-04-16T02:05:50.017Z,986.22
2018-04-16T02:06:49.859Z,986.26
2018-04-16T02:08:42.637Z,986.22
2018-04-16T02:09:42.525Z,986.17
2018-04-16T02:11:35.324Z,986.20
2018-04-16T02:12:35.164Z,986.19
2018-04-16T02:14:28.024Z,986.19
2018-04-16T02:15:27.915Z,986.18
2018-04-16T02:17:20.652Z,986.15
2018-04-16T02:18:20.552Z,986.16
2018-04-16T02:20:13.429Z,986.17
2018-04-16T02:21:13.299Z,986.18
2018-04-16T02:23:06.144Z,986.20
2018-04-16T02:24:06.061Z,986.25
2018-04-16T02:25:58.815Z,986.27
2018-04-16T02:26:58.712Z,986.24
2018-04-16T02:28:51.450Z,986.26
2018-04-16T02:29:51.367Z,986.22
2018-04-16T02:31:44.698Z,986.27
2018-04-16T02:32:43.996Z,986.30
2018-04-16T02:34:36.864Z,986.28
2018-04-16T02:35:36.752Z,986.32
2018-04-16T02:37:29.596Z,986.29
2018-04-16T02:38:29.498Z,986.33
2018-04-16T02:40:22.757Z,986.37
2018-04-16T02:41:22.670Z,986.37
2018-04-16T02:43:15.502Z,986.36
2018-04-16T02:44:15.298Z,986.36
2018-04-16T02:46:08.080Z,986.47
2018-04-16T02:47:07.962Z,986.47
2018-04-16T02:49:00.698Z,986.48
2018-04-16T02:50:00.631Z,986.48
2018-04-16T02:51:53.358Z,986.49
2018-04-16T02:52:53.244Z,986.45
2018-04-16T02:54:46.604Z,986.47
2018-04-16T02:55:46.500Z,986.46
2018-04-16T02:57:39.272Z,986.42
2018-04-16T02:58:39.159Z,986.44
2018-04-16T03:00:32.003Z,986.45
2018-04-16T03:01:31.896Z,986.43
2018-04-16T03:03:24.770Z,986.43
2018-04-16T03:04:24.646Z,986.40
2018-04-16T03:06:17.407Z,986.38
2018-04-16T03:07:17.378Z,986.34
2018-04-16T03:09:10.166Z,986.31
2018-04-16T03:10:10.059Z,986.38
2018-04-16T03:12:02.792Z,986.35
2018-04-16T03:13:02.697Z,986.34
2018-04-16T03:14:56.066Z,986.33
2018-04-16T03:15:55.960Z,986.32
2018-04-16T03:17:48.804Z,986.33
2018-04-16T03:18:48.717Z,986.33
2018-04-16T03:20:41.461Z,986.31
2018-04-16T03:21:41.359Z,986.32
2018-04-16T03:23:34.099Z,986.29
2018-04-16T03:24:34.160Z,986.26
2018-04-16T03:26:26.871Z,986.22
2018-04-16T03:27:26.757Z,986.24
2018-04-16T03:29:19.504Z,986.28
2018-04-16T03:30:19.405Z,986.27
2018-04-16T03:32:12.255Z,986.27
2018-04-16T03:33:12.161Z,986.26
2018-04-16T03:35:04.890Z,986.31
2018-04-16T03:36:04.816Z,986.32
2018-04-16T03:37:57.648Z,986.37
2018-04-16T03:38:57.551Z,986.33
2018-04-16T03:40:50.310Z,986.32
2018-04-16T03:41:50.192Z,986.36
2018-04-16T03:43:42.937Z,986.36
2018-04-16T03:44:42.854Z,986.38
2018-04-16T03:46:35.618Z,986.37
2018-04-16T03:47:35.513Z,986.35
2018-04-16T03:49:28.326Z,986.35
2018-04-16T03:50:28.233Z,986.35
2018-04-16T03:52:21.000Z,986.35
2018-04-16T03:53:20.908Z,986.36
2018-04-16T03:55:13.760Z,986.42
2018-04-16T03:56:13.638Z,986.40
2018-04-16T03:58:06.472Z,986.44
2018-04-16T03:59:06.394Z,986.48
2018-04-16T04:01:00.677Z,986.46
2018-04-16T04:02:00.563Z,986.55
2018-04-16T04:03:53.311Z,986.56
2018-04-16T04:04:53.217Z,986.57
2018-04-16T04:06:46.061Z,986.63
2018-04-16T04:07:45.977Z,986.66
2018-04-16T04:09:38.728Z,986.65
2018-04-16T04:10:38.614Z,986.66
2018-04-16T04:12:31.360Z,986.73
2018-04-16T04:13:31.264Z,986.71
2018-04-16T04:15:24.014Z,986.73
2018-04-16T04:16:23.899Z,986.74
2018-04-16T04:18:16.673Z,986.75
2018-04-16T04:19:16.559Z,986.71
2018-04-16T04:21:09.288Z,986.75
2018-04-16T04:22:09.197Z,986.77
2018-04-16T04:24:01.972Z,986.76
2018-04-16T04:25:01.917Z,986.78
2018-04-16T04:26:54.591Z,986.81
2018-04-16T04:27:54.492Z,986.86
2018-04-16T04:29:47.369Z,986.89
2018-04-16T04:30:47.242Z,986.90
2018-04-16T04:32:40.008Z,986.96
2018-04-16T04:33:39.887Z,986.94
2018-04-16T04:35:32.744Z,987.00
2018-04-16T04:36:32.640Z,987.01
2018-04-16T04:38:25.921Z,987.02
2018-04-16T04:39:25.798Z,986.99
2018-04-16T04:41:18.580Z,986.99
2018-04-16T04:42:18.441Z,987.01
2018-04-16T04:44:11.218Z,987.05
2018-04-16T04:45:11.094Z,986.98
2018-04-16T04:47:04.468Z,987.01
2018-04-16T04:48:04.356Z,987.02
2018-04-16T04:49:57.105Z,987.03
2018-04-16T04:50:57.021Z,987.03
2018-04-16T04:52:49.740Z,987.06
2018-04-16T04:53:49.653Z,987.04
2018-04-16T04:55:42.432Z,987.07
2018-04-16T04:56:42.310Z,987.03
2018-04-16T04:58:35.063Z,987.03
2018-04-16T04:59:34.953Z,987.03
2018-04-16T05:01:27.682Z,987.06
2018-04-16T05:02:27.600Z,987.11
2018-04-16T05:04:20.858Z,987.11
2018-04-16T05:05:20.750Z,987.10
2018-04-16T05:07:13.498Z,987.14
2018-04-16T05:08:13.396Z,987.20
2018-04-16T05:10:06.157Z,987.17
2018-04-16T05:11:06.040Z,987.21
2018-04-16T05:12:59.294Z,987.23
2018-04-16T05:13:59.204Z,987.26
2018-04-16T05:15:51.955Z,987.31
2018-04-16T05:16:51.865Z,987.33
2018-04-16T05:18:44.590Z,987.36
2018-04-16T05:19:44.499Z,987.38
2018-04-16T05:21:37.260Z,987.34
2018-04-16T05:22:37.164Z,987.35
2018-04-16T05:24:30.005Z,987.37
2018-04-16T05:25:29.790Z,987.36
2018-04-16T05:27:22.756Z,987.36
2018-04-16T05:28:22.756Z,987.35
2018-04-16T05:30:15.927Z,987.38
2018-04-16T05:31:15.798Z,987.32
2018-04-16T05:33:08.561Z,987.37
2018-04-16T05:34:08.462Z,987.39
2018-04-16T05:36:01.314Z,987.44
2018-04-16T05:37:01.224Z,987.43
2018-04-16T05:38:53.946Z,987.45
2018-04-16T05:39:53.843Z,987.45
2018-04-16T05:41:46.625Z,987.48
2018-04-16T05:42:46.490Z,987.47
2018-04-16T05:44:39.250Z,987.52
2018-04-16T05:45:39.162Z,987.56
2018-04-16T05:47:32.015Z,987.61
2018-04-16T05:48:31.908Z,987.58
2018-04-16T05:50:24.736Z,987.60
2018-04-16T05:51:24.684Z,987.58
2018-04-16T05:53:17.445Z,987.59
2018-04-16T05:54:17.297Z,987.59
2018-04-16T05:56:10.066Z,987.63
2018-04-16T05:57:09.932Z,987.66
2018-04-16T05:59:03.304Z,987.68
2018-04-16T06:00:02.596Z,987.68
2018-04-16T06:01:55.441Z,987.76
2018-04-16T06:02:55.332Z,987.76
2018-04-16T06:04:48.177Z,987.76
2018-04-16T06:05:48.109Z,987.74
2018-04-16T06:07:40.843Z,987.79
2018-04-16T06:08:40.729Z,987.76
2018-04-16T06:10:33.483Z,987.76
2018-04-16T06:11:33.379Z,987.75
2018-04-16T06:13:26.234Z,987.73
2018-04-16T06:14:26.132Z,987.70
2018-04-16T06:16:19.004Z,987.72
2018-04-16T06:17:18.894Z,987.76
2018-04-16T06:19:11.680Z,987.77
2018-04-16T06:20:11.529Z,987.72
2018-04-16T06:22:04.372Z,987.81
2018-04-16T06:23:04.282Z,987.80
2018-04-16T06:24:57.012Z,987.83
2018-04-16T06:25:56.930Z,987.87
2018-04-16T06:27:49.669Z,987.88
2018-04-16T06:28:49.560Z,987.87
2018-04-16T06:30:42.467Z,987.88
2018-04-16T06:31:42.316Z,987.90
2018-04-16T06:33:35.068Z,987.91
2018-04-16T06:34:34.966Z,987.89
2018-04-16T06:36:27.721Z,987.88
2018-04-16T06:37:27.607Z,987.91
2018-04-16T06:39:20.446Z,987.98
2018-04-16T06:40:20.354Z,987.95
2018-04-16T06:42:13.123Z,987.96
2018-04-16T06:43:13.006Z,987.92
2018-04-16T06:45:05.750Z,987.95
2018-04-16T06:46:05.646Z,988.02
2018-04-16T06:47:58.400Z,988.01
2018-04-16T06:48:58.318Z,988.04
2018-04-16T06:50:51.065Z,988.07
2018-04-16T06:51:50.968Z,988.09
2018-04-16T06:53:43.701Z,988.14
2018-04-16T06:54:43.592Z,988.15
2018-04-16T06:56:36.346Z,988.19
2018-04-16T06:57:36.250Z,988.20
2018-04-16T06:59:28.995Z,988.18
2018-04-16T07:00:28.890Z,988.20
2018-04-16T07:02:22.152Z,988.21
2018-04-16T07:03:22.055Z,988.19
2018-04-16T07:05:14.915Z,988.22
2018-04-16T07:06:14.793Z,988.23
2018-04-16T07:08:07.536Z,988.28
2018-04-16T07:09:07.450Z,988.28
2018-04-16T07:11:00.312Z,988.24
2018-04-16T07:12:00.198Z,988.28
2018-04-16T07:13:53.051Z,988.25
2018-04-16T07:14:52.956Z,988.27
2018-04-16T07:16:45.688Z,988.32
2018-04-16T07:17:45.593Z,988.24
2018-04-16T07:19:38.367Z,988.31
2018-04-16T07:20:38.237Z,988.29
2018-04-16T07:22:30.975Z,988.29
2018-04-16T07:23:30.892Z,988.30
2018-04-16T07:25:24.165Z,988.34
2018-04-16T07:26:24.053Z,988.36
2018-04-16T07:28:16.781Z,988.34
2018-04-16T07:29:16.695Z,988.36
2018-04-16T07:31:09.442Z,988.37
2018-04-16T07:32:09.340Z,988.35
2018-04-16T07:34:02.196Z,988.33
2018-04-16T07:35:02.095Z,988.33
2018-04-16T07:36:54.847Z,988.33
2018-04-16T07:37:54.724Z,988.38
2018-04-16T07:39:47.474Z,988.38
2018-04-16T07:40:47.381Z,988.40
2018-04-16T07:42:40.141Z,988.39
2018-04-16T07:43:40.047Z,988.41
2018-04-16T07:45:32.869Z,988.39
2018-04-16T07:46:32.775Z,988.42
2018-04-16T07:48:25.659Z,988.44
2018-04-16T07:49:25.519Z,988.44
2018-04-16T07:51:18.380Z,988.45
2018-04-16T07:52:18.301Z,988.42
2018-04-16T07:54:11.117Z,988.43
2018-04-16T07:55:11.039Z,988.42
2018-04-16T07:57:03.782Z,988.44
2018-04-16T07:58:03.674Z,988.42
2018-04-16T07:59:56.426Z,988.51
2018-04-16T08:00:56.324Z,988.44
2018-04-16T08:02:49.188Z,988.42
2018-04-16T08:03:49.067Z,988.41
2018-04-16T08:05:41.911Z,988.43
2018-04-16T08:06:41.824Z,988.44
2018-04-16T08:08:35.084Z,988.41
2018-04-16T08:09:34.981Z,988.41
2018-04-16T08:11:27.869Z,988.42
2018-04-16T08:12:27.755Z,988.44
2018-04-16T08:14:20.612Z,988.44
2018-04-16T08:15:20.482Z,988.48
2018-04-16T08:17:13.222Z,988.47
2018-04-16T08:18:13.140Z,988.47
2018-04-16T08:20:05.883Z,988.52
2018-04-16T08:21:05.776Z,988.51
2018-04-16T08:22:58.530Z,988.52
2018-04-16T08:23:58.438Z,988.54
2018-04-16T08:25:51.155Z,988.47
2018-04-16T08:26:51.077Z,988.50
2018-04-16T08:28:43.927Z,988.53
2018-04-16T08:29:43.841Z,988.54
2018-04-16T08:31:37.101Z,988.52
2018-04-16T08:32:36.978Z,988.54
2018-04-16T08:34:29.731Z,988.50
2018-04-16T08:35:29.619Z,988.52
2018-04-16T08:37:22.486Z,988.56
2018-04-16T08:38:22.395Z,988.62
2018-04-16T08:40:15.232Z,988.61
2018-04-16T08:41:15.153Z,988.65
2018-04-16T08:43:07.877Z,988.63
2018-04-16T08:44:07.771Z,988.63
2018-04-16T08:46:00.642Z,988.60
2018-04-16T08:47:00.532Z,988.59
2018-04-16T08:48:53.261Z,988.65
2018-04-16T08:49:53.170Z,988.62
2018-04-16T08:51:45.930Z,988.60
2018-04-16T08:52:45.817Z,988.66
2018-04-16T08:54:38.663Z,988.61
2018-04-16T08:55:38.576Z,988.63
2018-04-16T08:57:31.431Z,988.69
2018-04-16T08:58:31.311Z,988.72
2018-04-16T09:00:24.155Z,988.72
2018-04-16T09:01:24.065Z,988.68
2018-04-16T09:03:16.825Z,988.75
2018-04-16T09:04:16.713Z,988.73
2018-04-16T09:06:09.548Z,988.77
2018-04-16T09:07:09.515Z,988.79
2018-04-16T09:09:02.230Z,988.76
2018-04-16T09:10:02.115Z,988.76
2018-04-16T09:11:54.967Z,988.77
2018-04-16T09:12:54.850Z,988.76
2018-04-16T09:14:47.612Z,988.81
2018-04-16T09:15:47.534Z,988.82
2018-04-16T09:17:40.258Z,988.81
2018-04-16T09:18:40.148Z,988.77
2018-04-16T09:20:32.992Z,988.70
2018-04-16T09:21:32.912Z,988.73
2018-04-16T09:23:25.670Z,988.72
2018-04-16T09:24:25.633Z,988.71
2018-04-16T09:26:18.404Z,988.70
2018-04-16T09:27:18.364Z,988.72
2018-04-16T09:29:11.169Z,988.69
2018-04-16T09:30:11.039Z,988.66
2018-04-16T09:32:03.912Z,988.69
2018-04-16T09:33:03.837Z,988.68
2018-04-16T09:34:56.575Z,988.75
2018-04-16T09:35:56.469Z,988.75
2018-04-16T09:37:49.333Z,988.80
2018-04-16T09:38:49.204Z,988.77
2018-04-16T09:40:41.953Z,988.78
2018-04-16T09:41:41.842Z,988.77
2018-04-16T09:43:34.708Z,988.75
2018-04-16T09:44:34.612Z,988.75
2018-04-16T09:46:27.438Z,988.79
2018-04-16T09:47:27.361Z,988.77
2018-04-16T09:49:20.176Z,988.80
2018-04-16T09:50:20.110Z,988.79
2018-04-16T09:52:12.846Z,988.76
2018-04-16T09:53:12.753Z,988.71
2018-04-16T09:55:05.604Z,988.73
2018-04-16T09:56:05.503Z,988.71
2018-04-16T09:57:58.362Z,988.68
2018-04-16T09:58:58.243Z,988.68
2018-04-16T10:00:51.004Z,988.69
2018-04-16T10:01:50.896Z,988.69
2018-04-16T10:03:43.741Z,988.74
2018-04-16T10:04:43.645Z,988.70
2018-04-16T10:06:36.402Z,988.76
2018-04-16T10:07:36.278Z,988.77
2018-04-16T10:09:29.532Z,988.80
2018-04-16T10:10:29.438Z,988.77
2018-04-16T10:12:22.320Z,988.83
2018-04-16T10:13:22.193Z,988.80
2018-04-16T10:15:15.050Z,988.76
2018-04-16T10:16:14.931Z,988.72
2018-04-16T10:18:07.806Z,988.79
2018-04-16T10:19:07.709Z,988.81
2018-04-16T10:21:00.559Z,988.85
2018-04-16T10:22:00.436Z,988.79
2018-04-16T10:23:53.298Z,988.82
2018-04-16T10:24:53.195Z,988.78
2018-04-16T10:26:46.464Z,988.76
2018-04-16T10:27:46.358Z,988.77
2018-04-16T10:29:39.201Z,988.76
2018-04-16T10:30:39.099Z,988.78
2018-04-16T10:32:31.830Z,988.82
2018-04-16T10:33:31.749Z,988.82
2018-04-16T10:35:24.599Z,988.89
2018-04-16T10:36:24.502Z,988.84
2018-04-16T10:38:17.360Z,988.83
2018-04-16T10:39:17.244Z,988.87
2018-04-16T10:41:10.079Z,988.89
2018-04-16T10:42:09.995Z,988.91
2018-04-16T10:44:03.422Z,988.91
2018-04-16T10:45:03.309Z,988.86
2018-04-16T10:46:56.115Z,988.87
2018-04-16T10:47:56.005Z,988.91
2018-04-16T10:49:48.852Z,988.91
2018-04-16T10:50:48.812Z,988.95
2018-04-16T10:52:41.598Z,988.96
2018-04-16T10:53:41.528Z,988.94
2018-04-16T10:55:34.388Z,989.00
2018-04-16T10:56:34.344Z,988.99
2018-04-16T10:58:27.095Z,989.04
2018-04-16T10:59:27.001Z,988.96
2018-04-16T11:01:19.845Z,989.02
2018-04-16T11:02:19.761Z,989.04
2018-04-16T11:04:13.013Z,989.00
2018-04-16T11:05:12.922Z,989.04
2018-04-16T11:07:05.762Z,989.04
2018-04-16T11:08:05.673Z,989.05
2018-04-16T11:09:58.519Z,989.03
2018-04-16T11:10:58.412Z,989.01
2018-04-16T11:12:51.255Z,989.02
2018-04-16T11:13:51.157Z,989.07
2018-04-16T11:15:44.446Z,989.07
2018-04-16T11:16:44.325Z,989.11
2018-04-16T11:18:37.161Z,989.08
2018-04-16T11:19:37.092Z,989.03
2018-04-16T11:21:29.935Z,989.05
2018-04-16T11:22:29.835Z,989.02
2018-04-16T11:24:22.695Z,989.00
2018-04-16T11:25:22.583Z,988.99
2018-04-16T11:27:15.451Z,989.01
2018-04-16T11:28:15.335Z,989.03
2018-04-16T11:30:08.574Z,988.99
2018-04-16T11:31:08.486Z,989.02
2018-04-16T11:33:01.352Z,989.05
2018-04-16T11:34:01.245Z,989.09
2018-04-16T11:35:54.069Z,989.11
2018-04-16T11:36:53.992Z,989.13
2018-04-16T11:38:47.266Z,989.15
2018-04-16T11:39:47.135Z,989.13
2018-04-16T11:41:39.997Z,989.14
2018-04-16T11:42:39.889Z,989.18
2018-04-16T11:44:32.744Z,989.16
2018-04-16T11:45:32.634Z,989.11
2018-04-16T11:47:26.297Z,989.12
2018-04-16T11:48:26.202Z,989.13
2018-04-16T11:50:19.055Z,989.17
2018-04-16T11:51:18.955Z,989.14
2018-04-16T11:53:12.308Z,989.24
2018-04-16T11:54:12.214Z,989.20
2018-04-16T11:56:05.086Z,989.25
2018-04-16T11:57:04.972Z,989.23
2018-04-16T11:58:57.955Z,989.19
2018-04-16T11:59:57.709Z,989.27
2018-04-16T12:01:50.583Z,989.30
2018-04-16T12:02:50.463Z,989.27
2018-04-16T12:04:43.324Z,989.37
2018-04-16T12:05:43.206Z,989.38
2018-04-16T12:07:36.067Z,989.36
2018-04-16T12:08:35.964Z,989.35
2018-04-16T12:10:28.843Z,989.32
2018-04-16T12:11:28.709Z,989.33
2018-04-16T12:13:22.067Z,989.29
2018-04-16T12:14:21.982Z,989.36
2018-04-16T12:16:14.857Z,989.36
2018-04-16T12:17:14.746Z,989.36
2018-04-16T12:19:07.558Z,989.37
2018-04-16T12:20:07.550Z,989.41
2018-04-16T12:22:00.334Z,989.44
2018-04-16T12:23:00.250Z,989.41
2018-04-16T12:24:53.079Z,989.40
2018-04-16T12:25:52.974Z,989.41
2018-04-16T12:27:46.251Z,989.43
2018-04-16T12:28:46.145Z,989.47
2018-04-16T12:30:39.024Z,989.42
2018-04-16T12:31:38.894Z,989.45
2018-04-16T12:33:31.747Z,989.44
2018-04-16T12:34:31.663Z,989.47
2018-04-16T12:36:24.543Z,989.45
2018-04-16T12:37:24.396Z,989.45
2018-04-16T12:39:17.219Z,989.53
2018-04-16T12:40:17.124Z,989.49
2018-04-16T12:42:09.973Z,989.48
2018-04-16T12:43:09.892Z,989.47
2018-04-16T12:45:02.723Z,989.49
2018-04-16T12:46:02.620Z,989.48
2018-04-16T12:47:55.499Z,989.51
2018-04-16T12:48:55.377Z,989.49
2018-04-16T12:50:48.232Z,989.52
2018-04-16T12:51:48.158Z,989.54
2018-04-16T12:53:40.978Z,989.53
2018-04-16T12:54:40.869Z,989.52
2018-04-16T12:56:34.175Z,989.51
2018-04-16T12:57:34.042Z,989.54
2018-04-16T12:59:27.282Z,989.48
2018-04-16T13:00:27.210Z,989.54
2018-04-16T13:02:20.044Z,989.55
2018-04-16T13:03:19.952Z,989.58
2018-04-16T13:05:12.804Z,989.58
2018-04-16T13:06:12.699Z,989.61
2018-04-16T13:08:05.538Z,989.56
2018-04-16T13:09:05.439Z,989.57
2018-04-16T13:10:58.393Z,989.55
2018-04-16T13:11:58.307Z,989.59
2018-04-16T13:13:51.179Z,989.62
2018-04-16T13:14:51.044Z,989.63
2018-04-16T13:16:43.884Z,989.62
2018-04-16T13:17:43.806Z,989.61
2018-04-16T13:19:36.676Z,989.60
2018-04-16T13:20:36.558Z,989.60
2018-04-16T13:22:29.406Z,989.58
2018-04-16T13:23:29.306Z,989.57
2018-04-16T13:25:22.139Z,989.59
2018-04-16T13:26:22.066Z,989.58
2018-04-16T13:28:14.915Z,989.61
2018-04-16T13:29:14.937Z,989.61
2018-04-16T13:31:07.657Z,989.65
2018-04-16T13:32:07.537Z,989.63
2018-04-16T13:34:00.381Z,989.65
2018-04-16T13:35:00.287Z,989.69
2018-04-16T13:36:53.154Z,989.68
2018-04-16T13:37:53.061Z,989.64
2018-04-16T13:39:46.334Z,989.66
2018-04-16T13:40:46.221Z,989.71
2018-04-16T13:42:39.067Z,989.68
2018-04-16T13:43:38.963Z,989.73
2018-04-16T13:45:31.824Z,989.75
2018-04-16T13:46:31.711Z,989.74
2018-04-16T13:48:24.984Z,989.80
2018-04-16T13:49:24.869Z,989.79
2018-04-16T13:51:17.722Z,989.74
2018-04-16T13:52:17.627Z,989.77
2018-04-16T13:54:10.480Z,989.72
2018-04-16T13:55:10.376Z,989.73
2018-04-16T13:57:03.219Z,989.77
2018-04-16T13:58:03.116Z,989.75
2018-04-16T13:59:56.530Z,989.75
2018-04-16T14:00:55.883Z,989.71
2018-04-16T14:02:48.702Z,989.73
2018-04-16T14:03:48.627Z,989.74
2018-04-16T14:05:41.516Z,989.75
2018-04-16T14:06:41.357Z,989.77
2018-04-16T14:08:34.227Z,989.74
2018-04-16T14:09:34.131Z,989.77
2018-04-16T14:11:26.985Z,989.71
2018-04-16T14:12:26.870Z,989.72
2018-04-16T14:14:19.693Z,989.76
2018-04-16T14:15:19.626Z,989.78
2018-04-16T14:17:12.650Z,989.76
2018-04-16T14:18:12.655Z,989.80
2018-04-16T14:20:05.197Z,989.85
2018-04-16T14:21:05.103Z,989.82
2018-04-16T14:22:58.075Z,989.80
2018-04-16T14:23:57.978Z,989.78
2018-04-16T14:25:50.836Z,989.80
2018-04-16T14:26:50.705Z,989.82
2018-04-16T14:28:43.976Z,989.78
2018-04-16T14:29:43.893Z,989.84
2018-04-16T14:31:36.740Z,989.83
2018-04-16T14:32:36.643Z,989.87
2018-04-16T14:34:29.584Z,989.87
2018-04-16T14:35:29.474Z,989.88
2018-04-16T14:37:22.337Z,989.87
2018-04-16T14:38:22.231Z,989.87
2018-04-16T14:40:15.502Z,989.89
2018-04-16T14:41:15.406Z,989.88
2018-04-16T14:43:08.729Z,989.91
2018-04-16T14:44:08.661Z,989.93
2018-04-16T14:46:01.928Z,989.97
2018-04-16T14:47:01.814Z,989.99
2018-04-16T14:48:54.635Z,989.96
2018-04-16T14:49:54.561Z,990.03
2018-04-16T14:51:47.410Z,989.98
2018-04-16T14:52:47.309Z,989.96
2018-04-16T14:54:40.661Z,989.94
2018-04-16T14:55:40.568Z,989.95
2018-04-16T14:57:33.396Z,989.93
2018-04-16T14:58:33.332Z,989.95
2018-04-16T15:00:26.167Z,989.93
2018-04-16T15:01:26.079Z,989.92
2018-04-16T15:03:19.445Z,989.95
2018-04-16T15:04:19.321Z,989.95
2018-04-16T15:06:13.312Z,990.00
2018-04-16T15:07:13.205Z,990.01
2018-04-16T15:09:06.032Z,990.04
2018-04-16T15:10:05.970Z,990.06
2018-04-16T15:11:58.793Z,990.07
2018-04-16T15:12:58.725Z,990.10
2018-04-16T15:14:51.549Z,990.10
2018-04-16T15:15:51.445Z,990.12
2018-04-16T15:17:44.283Z,990.18
2018-04-16T15:18:44.192Z,990.15
2018-04-16T15:20:37.064Z,990.14
2018-04-16T15:21:36.962Z,990.12
2018-04-16T15:23:29.844Z,990.20
2018-04-16T15:24:29.752Z,990.22
2018-04-16T15:26:22.571Z,990.26
2018-04-16T15:27:22.452Z,990.20
2018-04-16T15:29:15.289Z,990.22
2018-04-16T15:30:15.199Z,990.21
2018-04-16T15:32:08.449Z,990.27
2018-04-16T15:33:08.154Z,990.28
2018-04-16T15:35:01.080Z,990.48
2018-04-16T15:36:00.992Z,990.64
2018-04-16T15:37:53.956Z,990.70
2018-04-16T15:38:53.875Z,990.72
2018-04-16T15:40:46.691Z,990.83
2018-04-16T15:41:46.593Z,990.83
2018-04-16T15:43:39.734Z,990.81
2018-04-16T15:44:39.348Z,990.82
2018-04-16T15:46:32.704Z,990.78
2018-04-16T15:47:32.624Z,990.72
2018-04-16T15:49:25.597Z,990.78
2018-04-16T15:50:25.472Z,990.82
2018-04-16T15:52:18.395Z,990.83
2018-04-16T15:53:18.329Z,990.86
2018-04-16T15:55:11.209Z,990.84
2018-04-16T15:56:10.957Z,990.85
2018-04-16T15:58:03.815Z,990.85
2018-04-16T15:59:03.719Z,990.91
2018-04-16T16:00:56.460Z,990.88
2018-04-16T16:01:56.389Z,990.86
2018-04-16T16:03:49.193Z,990.87
2018-04-16T16:04:49.119Z,990.90
2018-04-16T16:06:41.948Z,990.92
2018-04-16T16:07:41.850Z,990.91
2018-04-16T16:09:34.707Z,990.92
2018-04-16T16:10:34.600Z,990.90
2018-04-16T16:12:27.524Z,990.93
2018-04-16T16:13:27.378Z,990.99
2018-04-16T16:15:20.242Z,990.97
2018-04-16T16:16:20.107Z,990.91
2018-04-16T16:18:12.972Z,990.95
2018-04-16T16:19:12.853Z,990.94
2018-04-16T16:21:05.820Z,990.90
2018-04-16T16:22:05.705Z,990.94
2018-04-16T16:23:58.592Z,990.97
2018-04-16T16:24:58.451Z,991.01
2018-04-16T16:26:51.298Z,991.04
2018-04-16T16:27:51.214Z,991.05
2018-04-16T16:29:44.039Z,991.06
2018-04-16T16:30:43.988Z,991.10
2018-04-16T16:32:36.935Z,991.07
2018-04-16T16:33:36.813Z,991.06
2018-04-16T16:35:29.653Z,991.07
2018-04-16T16:36:29.571Z,991.07
2018-04-16T16:38:22.410Z,991.04
2018-04-16T16:39:22.301Z,991.06
2018-04-16T16:41:15.294Z,991.06
2018-04-16T16:42:15.047Z,991.07
2018-04-16T16:44:07.897Z,991.05
2018-04-16T16:45:07.799Z,991.07
2018-04-16T16:47:00.833Z,991.02
2018-04-16T16:48:00.672Z,991.00
2018-04-16T16:49:53.534Z,991.07
2018-04-16T16:50:53.420Z,991.09
2018-04-16T16:52:46.552Z,991.09
2018-04-16T16:53:46.930Z,991.09
2018-04-16T16:55:39.101Z,991.11
2018-04-16T16:56:39.021Z,991.10
2018-04-16T16:58:31.896Z,991.14
2018-04-16T16:59:31.755Z,991.14
2018-04-16T17:01:24.615Z,991.20
2018-04-16T17:02:24.568Z,991.21
2018-04-16T17:04:17.541Z,991.24
2018-04-16T17:05:17.347Z,991.19
2018-04-16T17:07:10.156Z,991.19
2018-04-16T17:08:10.005Z,991.22
2018-04-16T17:10:02.952Z,991.27
2018-04-16T17:11:02.853Z,991.33
2018-04-16T17:12:56.215Z,991.38
2018-04-16T17:13:56.144Z,991.35
2018-04-16T17:15:49.303Z,991.31
2018-04-16T17:16:50.172Z,991.33
2018-04-16T17:18:41.710Z,991.32
2018-04-16T17:19:41.779Z,991.32
2018-04-16T17:21:34.485Z,991.38
2018-04-16T17:22:34.378Z,991.33
2018-04-16T17:24:27.272Z,991.44
2018-04-16T17:25:27.143Z,991.47
2018-04-16T17:27:20.937Z,991.44
2018-04-16T17:28:20.243Z,991.46
2018-04-16T17:30:12.750Z,991.47
2018-04-16T17:31:12.620Z,991.41
2018-04-16T17:33:05.458Z,991.47
2018-04-16T17:34:05.375Z,991.47
2018-04-16T17:35:58.220Z,991.46
2018-04-16T17:36:58.147Z,991.46
2018-04-16T17:38:51.478Z,991.46
2018-04-16T17:39:51.881Z,991.47
2018-04-16T17:41:44.255Z,991.41
2018-04-16T17:42:43.611Z,991.42
2018-04-16T17:44:36.459Z,991.44
2018-04-16T17:45:36.361Z,991.49
2018-04-16T17:47:29.212Z,991.55
2018-04-16T17:48:29.109Z,991.61
2018-04-16T17:50:21.949Z,991.64
2018-04-16T17:51:21.873Z,991.65
2018-04-16T17:53:14.711Z,991.64
2018-04-16T17:54:14.627Z,991.68
2018-04-16T17:56:07.485Z,991.70
2018-04-16T17:57:07.384Z,991.67